sensor_id;sensor_type;location;lat;lon;timestamp;P1;durP1;ratioP1;P2;durP2;ratioP2
8909;SDS011;4490;49.072;8.804;2023-07-09T00:02:24;6.90;;;5.15;;
8909;SDS011;4490;49.072;8.804;2023-07-09T00:04:51;6.35;;;4.88;;
8909;SDS011;4490;49.072;8.804;2023-07-09T00:07:24;6.13;;;4.70;;
8909;SDS011;4490;49.072;8.804;2023-07-09T00:09:54;6.97;;;4.68;;
8909;SDS011;4490;49.072;8.804;2023-07-09T00:12:20;7.93;;;4.85;;
8909;SDS011;4490;49.072;8.804;2023-07-09T00:14:46;5.95;;;4.82;;
8909;SDS011;4490;49.072;8.804;2023-07-09T00:17:16;5.93;;;4.80;;
8909;SDS011;4490;49.072;8.804;2023-07-09T00:19:44;7.45;;;4.72;;
8909;SDS011;4490;49.072;8.804;2023-07-09T00:22:13;5.90;;;4.22;;
8909;SDS011;4490;49.072;8.804;2023-07-09T00:24:44;6.95;;;5.00;;
8909;SDS011;4490;49.072;8.804;2023-07-09T00:27:12;7.75;;;5.05;;
8909;SDS011;4490;49.072;8.804;2023-07-09T00:29:40;6.60;;;4.68;;
8909;SDS011;4490;49.072;8.804;2023-07-09T00:32:13;7.57;;;5.18;;
8909;SDS011;4490;49.072;8.804;2023-07-09T00:34:41;5.82;;;4.50;;
8909;SDS011;4490;49.072;8.804;2023-07-09T00:37:10;7.25;;;4.78;;
8909;SDS011;4490;49.072;8.804;2023-07-09T00:39:37;6.70;;;5.00;;
8909;SDS011;4490;49.072;8.804;2023-07-09T00:42:05;8.18;;;4.60;;
8909;SDS011;4490;49.072;8.804;2023-07-09T00:44:36;6.60;;;4.40;;
8909;SDS011;4490;49.072;8.804;2023-07-09T00:50:09;5.18;;;4.63;;
8909;SDS011;4490;49.072;8.804;2023-07-09T00:52:54;6.63;;;5.18;;
8909;SDS011;4490;49.072;8.804;2023-07-09T00:55:31;6.72;;;4.55;;
8909;SDS011;4490;49.072;8.804;2023-07-09T00:58:03;7.63;;;4.70;;
8909;SDS011;4490;49.072;8.804;2023-07-09T01:00:32;6.15;;;4.78;;
8909;SDS011;4490;49.072;8.804;2023-07-09T01:03:07;6.43;;;4.30;;
8909;SDS011;4490;49.072;8.804;2023-07-09T01:05:35;7.22;;;5.03;;
8909;SDS011;4490;49.072;8.804;2023-07-09T01:08:02;8.13;;;4.80;;
8909;SDS011;4490;49.072;8.804;2023-07-09T01:10:28;6.40;;;4.88;;
8909;SDS011;4490;49.072;8.804;2023-07-09T01:12:54;7.78;;;5.00;;
8909;SDS011;4490;49.072;8.804;2023-07-09T01:15:20;7.53;;;6.38;;
8909;SDS011;4490;49.072;8.804;2023-07-09T01:17:45;8.02;;;7.10;;
8909;SDS011;4490;49.072;8.804;2023-07-09T01:20:15;9.48;;;6.35;;
8909;SDS011;4490;49.072;8.804;2023-07-09T01:22:46;6.30;;;5.65;;
8909;SDS011;4490;49.072;8.804;2023-07-09T01:25:15;7.15;;;5.53;;
8909;SDS011;4490;49.072;8.804;2023-07-09T01:27:43;7.05;;;4.93;;
8909;SDS011;4490;49.072;8.804;2023-07-09T01:30:19;6.53;;;4.53;;
8909;SDS011;4490;49.072;8.804;2023-07-09T01:32:50;5.57;;;5.07;;
8909;SDS011;4490;49.072;8.804;2023-07-09T01:35:17;7.10;;;5.00;;
8909;SDS011;4490;49.072;8.804;2023-07-09T01:37:45;7.00;;;5.32;;
8909;SDS011;4490;49.072;8.804;2023-07-09T01:40:12;7.15;;;4.93;;
8909;SDS011;4490;49.072;8.804;2023-07-09T01:42:40;6.28;;;5.22;;
8909;SDS011;4490;49.072;8.804;2023-07-09T01:45:07;9.25;;;5.15;;
8909;SDS011;4490;49.072;8.804;2023-07-09T01:47:35;6.55;;;4.90;;
8909;SDS011;4490;49.072;8.804;2023-07-09T01:50:02;6.07;;;4.90;;
8909;SDS011;4490;49.072;8.804;2023-07-09T01:52:29;8.73;;;5.43;;
8909;SDS011;4490;49.072;8.804;2023-07-09T01:54:58;6.10;;;5.10;;
8909;SDS011;4490;49.072;8.804;2023-07-09T01:57:24;6.63;;;4.90;;
8909;SDS011;4490;49.072;8.804;2023-07-09T01:59:58;8.98;;;5.28;;
8909;SDS011;4490;49.072;8.804;2023-07-09T02:02:24;5.88;;;5.28;;
8909;SDS011;4490;49.072;8.804;2023-07-09T02:04:55;5.43;;;4.40;;
8909;SDS011;4490;49.072;8.804;2023-07-09T02:07:21;6.03;;;5.40;;
8909;SDS011;4490;49.072;8.804;2023-07-09T02:09:48;8.10;;;4.60;;
8909;SDS011;4490;49.072;8.804;2023-07-09T02:12:16;5.53;;;4.70;;
8909;SDS011;4490;49.072;8.804;2023-07-09T02:14:43;6.25;;;4.53;;
8909;SDS011;4490;49.072;8.804;2023-07-09T02:17:10;5.77;;;4.83;;
8909;SDS011;4490;49.072;8.804;2023-07-09T02:19:37;6.15;;;4.82;;
8909;SDS011;4490;49.072;8.804;2023-07-09T02:22:03;8.10;;;5.07;;
8909;SDS011;4490;49.072;8.804;2023-07-09T02:24:29;7.18;;;4.72;;
8909;SDS011;4490;49.072;8.804;2023-07-09T02:26:56;6.05;;;4.70;;
8909;SDS011;4490;49.072;8.804;2023-07-09T02:29:22;6.37;;;4.80;;
8909;SDS011;4490;49.072;8.804;2023-07-09T02:31:49;5.93;;;4.78;;
8909;SDS011;4490;49.072;8.804;2023-07-09T02:34:16;5.10;;;4.57;;
8909;SDS011;4490;49.072;8.804;2023-07-09T02:36:43;6.40;;;4.80;;
8909;SDS011;4490;49.072;8.804;2023-07-09T02:39:09;8.32;;;5.10;;
8909;SDS011;4490;49.072;8.804;2023-07-09T02:41:36;6.33;;;5.30;;
8909;SDS011;4490;49.072;8.804;2023-07-09T02:44:01;6.93;;;5.20;;
8909;SDS011;4490;49.072;8.804;2023-07-09T02:46:28;6.83;;;4.90;;
8909;SDS011;4490;49.072;8.804;2023-07-09T02:48:53;6.60;;;5.10;;
8909;SDS011;4490;49.072;8.804;2023-07-09T02:51:19;6.60;;;5.25;;
8909;SDS011;4490;49.072;8.804;2023-07-09T02:53:45;7.57;;;5.00;;
8909;SDS011;4490;49.072;8.804;2023-07-09T02:56:10;6.03;;;4.77;;
8909;SDS011;4490;49.072;8.804;2023-07-09T02:58:36;7.17;;;4.80;;
8909;SDS011;4490;49.072;8.804;2023-07-09T03:01:02;6.13;;;5.37;;
8909;SDS011;4490;49.072;8.804;2023-07-09T03:03:28;8.93;;;5.57;;
8909;SDS011;4490;49.072;8.804;2023-07-09T03:05:54;7.20;;;5.17;;
8909;SDS011;4490;49.072;8.804;2023-07-09T03:08:19;8.55;;;5.53;;
8909;SDS011;4490;49.072;8.804;2023-07-09T03:10:45;5.57;;;4.67;;
8909;SDS011;4490;49.072;8.804;2023-07-09T03:13:11;7.93;;;4.80;;
8909;SDS011;4490;49.072;8.804;2023-07-09T03:15:36;6.63;;;4.90;;
8909;SDS011;4490;49.072;8.804;2023-07-09T03:18:02;6.03;;;4.47;;
8909;SDS011;4490;49.072;8.804;2023-07-09T03:20:27;6.23;;;4.23;;
8909;SDS011;4490;49.072;8.804;2023-07-09T03:22:53;7.60;;;4.70;;
8909;SDS011;4490;49.072;8.804;2023-07-09T03:25:19;5.90;;;5.10;;
8909;SDS011;4490;49.072;8.804;2023-07-09T03:27:47;5.17;;;4.67;;
8909;SDS011;4490;49.072;8.804;2023-07-09T03:30:13;6.03;;;4.83;;
8909;SDS011;4490;49.072;8.804;2023-07-09T03:32:39;7.57;;;4.87;;
8909;SDS011;4490;49.072;8.804;2023-07-09T03:35:04;7.83;;;5.27;;
8909;SDS011;4490;49.072;8.804;2023-07-09T03:37:31;7.00;;;5.63;;
8909;SDS011;4490;49.072;8.804;2023-07-09T03:39:56;8.00;;;4.93;;
8909;SDS011;4490;49.072;8.804;2023-07-09T03:42:22;7.10;;;5.43;;
8909;SDS011;4490;49.072;8.804;2023-07-09T03:44:47;7.37;;;5.93;;
8909;SDS011;4490;49.072;8.804;2023-07-09T03:47:13;8.23;;;5.83;;
8909;SDS011;4490;49.072;8.804;2023-07-09T03:49:38;6.57;;;5.17;;
8909;SDS011;4490;49.072;8.804;2023-07-09T03:52:06;8.43;;;6.10;;
8909;SDS011;4490;49.072;8.804;2023-07-09T03:54:32;7.90;;;5.77;;
8909;SDS011;4490;49.072;8.804;2023-07-09T03:56:58;7.53;;;6.23;;
8909;SDS011;4490;49.072;8.804;2023-07-09T03:59:24;6.83;;;5.20;;
8909;SDS011;4490;49.072;8.804;2023-07-09T04:01:49;8.97;;;4.90;;
8909;SDS011;4490;49.072;8.804;2023-07-09T04:04:15;8.33;;;5.90;;
8909;SDS011;4490;49.072;8.804;2023-07-09T04:06:45;6.70;;;5.50;;
8909;SDS011;4490;49.072;8.804;2023-07-09T04:09:11;7.60;;;6.20;;
8909;SDS011;4490;49.072;8.804;2023-07-09T04:11:37;7.10;;;5.80;;
8909;SDS011;4490;49.072;8.804;2023-07-09T04:14:02;6.87;;;6.00;;
8909;SDS011;4490;49.072;8.804;2023-07-09T04:16:28;6.13;;;5.53;;
8909;SDS011;4490;49.072;8.804;2023-07-09T04:18:54;7.27;;;5.73;;
8909;SDS011;4490;49.072;8.804;2023-07-09T04:21:19;6.07;;;5.47;;
8909;SDS011;4490;49.072;8.804;2023-07-09T04:23:45;6.53;;;5.50;;
8909;SDS011;4490;49.072;8.804;2023-07-09T04:26:14;8.13;;;6.30;;
8909;SDS011;4490;49.072;8.804;2023-07-09T04:28:40;6.53;;;5.83;;
8909;SDS011;4490;49.072;8.804;2023-07-09T04:31:05;8.70;;;5.67;;
8909;SDS011;4490;49.072;8.804;2023-07-09T04:33:31;6.57;;;5.87;;
8909;SDS011;4490;49.072;8.804;2023-07-09T04:35:56;7.33;;;5.77;;
8909;SDS011;4490;49.072;8.804;2023-07-09T04:38:22;8.27;;;5.83;;
8909;SDS011;4490;49.072;8.804;2023-07-09T04:40:48;8.33;;;5.97;;
8909;SDS011;4490;49.072;8.804;2023-07-09T04:43:14;9.37;;;6.00;;
8909;SDS011;4490;49.072;8.804;2023-07-09T04:45:40;6.20;;;5.53;;
8909;SDS011;4490;49.072;8.804;2023-07-09T04:48:06;6.90;;;5.80;;
8909;SDS011;4490;49.072;8.804;2023-07-09T04:50:32;7.87;;;5.67;;
8909;SDS011;4490;49.072;8.804;2023-07-09T04:52:58;8.67;;;5.73;;
8909;SDS011;4490;49.072;8.804;2023-07-09T04:55:24;9.50;;;6.50;;
8909;SDS011;4490;49.072;8.804;2023-07-09T04:57:51;8.63;;;6.27;;
8909;SDS011;4490;49.072;8.804;2023-07-09T05:00:17;7.40;;;6.00;;
8909;SDS011;4490;49.072;8.804;2023-07-09T05:02:43;7.83;;;5.97;;
8909;SDS011;4490;49.072;8.804;2023-07-09T05:05:09;7.80;;;6.03;;
8909;SDS011;4490;49.072;8.804;2023-07-09T05:07:36;7.10;;;6.10;;
8909;SDS011;4490;49.072;8.804;2023-07-09T05:10:02;9.33;;;6.63;;
8909;SDS011;4490;49.072;8.804;2023-07-09T05:12:28;8.07;;;6.33;;
8909;SDS011;4490;49.072;8.804;2023-07-09T05:14:54;8.47;;;6.10;;
8909;SDS011;4490;49.072;8.804;2023-07-09T05:17:21;6.03;;;5.40;;
8909;SDS011;4490;49.072;8.804;2023-07-09T05:19:48;7.30;;;5.87;;
8909;SDS011;4490;49.072;8.804;2023-07-09T05:22:14;9.30;;;5.97;;
8909;SDS011;4490;49.072;8.804;2023-07-09T05:24:40;8.93;;;6.03;;
8909;SDS011;4490;49.072;8.804;2023-07-09T05:27:06;6.33;;;5.20;;
8909;SDS011;4490;49.072;8.804;2023-07-09T05:29:31;7.20;;;5.07;;
8909;SDS011;4490;49.072;8.804;2023-07-09T05:31:57;7.72;;;5.25;;
8909;SDS011;4490;49.072;8.804;2023-07-09T05:34:23;7.73;;;4.93;;
8909;SDS011;4490;49.072;8.804;2023-07-09T05:36:48;6.53;;;5.13;;
8909;SDS011;4490;49.072;8.804;2023-07-09T05:39:14;6.93;;;5.07;;
8909;SDS011;4490;49.072;8.804;2023-07-09T05:41:41;6.68;;;5.97;;
8909;SDS011;4490;49.072;8.804;2023-07-09T05:44:06;6.63;;;5.47;;
8909;SDS011;4490;49.072;8.804;2023-07-09T05:46:35;6.78;;;4.78;;
8909;SDS011;4490;49.072;8.804;2023-07-09T05:49:01;7.68;;;5.00;;
8909;SDS011;4490;49.072;8.804;2023-07-09T05:51:28;7.32;;;5.40;;
8909;SDS011;4490;49.072;8.804;2023-07-09T05:53:54;6.47;;;4.90;;
8909;SDS011;4490;49.072;8.804;2023-07-09T05:56:20;5.80;;;4.93;;
8909;SDS011;4490;49.072;8.804;2023-07-09T05:58:45;7.63;;;5.03;;
8909;SDS011;4490;49.072;8.804;2023-07-09T06:01:11;5.35;;;4.45;;
8909;SDS011;4490;49.072;8.804;2023-07-09T06:03:37;8.85;;;5.05;;
8909;SDS011;4490;49.072;8.804;2023-07-09T06:06:03;6.22;;;4.60;;
8909;SDS011;4490;49.072;8.804;2023-07-09T06:08:28;9.63;;;4.65;;
8909;SDS011;4490;49.072;8.804;2023-07-09T06:10:55;6.70;;;4.45;;
8909;SDS011;4490;49.072;8.804;2023-07-09T06:13:27;6.75;;;4.93;;
8909;SDS011;4490;49.072;8.804;2023-07-09T06:15:56;5.28;;;4.30;;
8909;SDS011;4490;49.072;8.804;2023-07-09T06:18:22;5.55;;;4.72;;
8909;SDS011;4490;49.072;8.804;2023-07-09T06:20:49;5.15;;;4.40;;
8909;SDS011;4490;49.072;8.804;2023-07-09T06:23:16;5.00;;;4.50;;
8909;SDS011;4490;49.072;8.804;2023-07-09T06:25:42;5.82;;;4.57;;
8909;SDS011;4490;49.072;8.804;2023-07-09T06:28:08;8.07;;;4.20;;
8909;SDS011;4490;49.072;8.804;2023-07-09T06:30:35;7.38;;;4.63;;
8909;SDS011;4490;49.072;8.804;2023-07-09T06:33:01;5.47;;;4.53;;
8909;SDS011;4490;49.072;8.804;2023-07-09T06:35:26;5.38;;;4.35;;
8909;SDS011;4490;49.072;8.804;2023-07-09T06:37:52;5.35;;;4.45;;
8909;SDS011;4490;49.072;8.804;2023-07-09T06:40:18;7.60;;;4.50;;
8909;SDS011;4490;49.072;8.804;2023-07-09T06:42:43;9.40;;;4.35;;
8909;SDS011;4490;49.072;8.804;2023-07-09T06:45:09;5.25;;;4.45;;
8909;SDS011;4490;49.072;8.804;2023-07-09T06:47:35;5.88;;;4.30;;
8909;SDS011;4490;49.072;8.804;2023-07-09T06:50:00;6.45;;;4.05;;
8909;SDS011;4490;49.072;8.804;2023-07-09T06:52:26;7.82;;;4.22;;
8909;SDS011;4490;49.072;8.804;2023-07-09T06:54:51;9.98;;;4.43;;
8909;SDS011;4490;49.072;8.804;2023-07-09T06:57:17;8.30;;;4.10;;
8909;SDS011;4490;49.072;8.804;2023-07-09T06:59:43;6.22;;;4.50;;
8909;SDS011;4490;49.072;8.804;2023-07-09T07:02:08;6.05;;;4.30;;
8909;SDS011;4490;49.072;8.804;2023-07-09T07:04:34;6.35;;;4.90;;
8909;SDS011;4490;49.072;8.804;2023-07-09T07:06:59;6.80;;;4.53;;
8909;SDS011;4490;49.072;8.804;2023-07-09T07:09:25;5.90;;;4.30;;
8909;SDS011;4490;49.072;8.804;2023-07-09T07:11:51;4.97;;;4.45;;
8909;SDS011;4490;49.072;8.804;2023-07-09T07:14:16;5.97;;;4.30;;
8909;SDS011;4490;49.072;8.804;2023-07-09T07:16:42;5.63;;;5.05;;
8909;SDS011;4490;49.072;8.804;2023-07-09T07:19:07;5.13;;;4.57;;
8909;SDS011;4490;49.072;8.804;2023-07-09T07:21:34;5.28;;;4.13;;
8909;SDS011;4490;49.072;8.804;2023-07-09T07:24:00;6.43;;;4.60;;
8909;SDS011;4490;49.072;8.804;2023-07-09T07:26:25;5.97;;;4.47;;
8909;SDS011;4490;49.072;8.804;2023-07-09T07:28:51;6.22;;;4.35;;
8909;SDS011;4490;49.072;8.804;2023-07-09T07:31:17;6.50;;;4.57;;
8909;SDS011;4490;49.072;8.804;2023-07-09T07:33:43;6.93;;;4.88;;
8909;SDS011;4490;49.072;8.804;2023-07-09T07:36:09;6.28;;;4.10;;
8909;SDS011;4490;49.072;8.804;2023-07-09T07:38:34;5.15;;;4.30;;
8909;SDS011;4490;49.072;8.804;2023-07-09T07:41:01;6.47;;;4.13;;
8909;SDS011;4490;49.072;8.804;2023-07-09T07:43:27;7.13;;;3.85;;
8909;SDS011;4490;49.072;8.804;2023-07-09T07:45:53;5.95;;;4.25;;
8909;SDS011;4490;49.072;8.804;2023-07-09T07:48:18;4.72;;;4.32;;
8909;SDS011;4490;49.072;8.804;2023-07-09T07:50:45;6.65;;;4.43;;
8909;SDS011;4490;49.072;8.804;2023-07-09T07:53:13;5.90;;;4.40;;
8909;SDS011;4490;49.072;8.804;2023-07-09T07:55:42;5.22;;;4.50;;
8909;SDS011;4490;49.072;8.804;2023-07-09T07:58:11;7.05;;;4.55;;
8909;SDS011;4490;49.072;8.804;2023-07-09T08:00:38;6.82;;;4.75;;
8909;SDS011;4490;49.072;8.804;2023-07-09T08:03:04;6.68;;;4.65;;
8909;SDS011;4490;49.072;8.804;2023-07-09T08:05:30;7.38;;;4.53;;
8909;SDS011;4490;49.072;8.804;2023-07-09T08:07:55;6.50;;;5.10;;
8909;SDS011;4490;49.072;8.804;2023-07-09T08:10:21;5.38;;;4.80;;
8909;SDS011;4490;49.072;8.804;2023-07-09T08:12:47;5.95;;;4.65;;
8909;SDS011;4490;49.072;8.804;2023-07-09T08:15:13;5.55;;;4.32;;
8909;SDS011;4490;49.072;8.804;2023-07-09T08:17:39;6.95;;;5.05;;
8909;SDS011;4490;49.072;8.804;2023-07-09T08:20:04;6.45;;;4.00;;
8909;SDS011;4490;49.072;8.804;2023-07-09T08:22:30;6.13;;;4.40;;
8909;SDS011;4490;49.072;8.804;2023-07-09T08:24:56;5.68;;;4.30;;
8909;SDS011;4490;49.072;8.804;2023-07-09T08:27:22;7.30;;;4.30;;
8909;SDS011;4490;49.072;8.804;2023-07-09T08:29:47;6.13;;;4.22;;
8909;SDS011;4490;49.072;8.804;2023-07-09T08:32:13;5.15;;;4.25;;
8909;SDS011;4490;49.072;8.804;2023-07-09T08:34:39;6.03;;;4.53;;
8909;SDS011;4490;49.072;8.804;2023-07-09T08:37:06;5.97;;;4.53;;
8909;SDS011;4490;49.072;8.804;2023-07-09T08:39:33;5.90;;;4.70;;
8909;SDS011;4490;49.072;8.804;2023-07-09T08:47:22;7.07;;;4.22;;
8909;SDS011;4490;49.072;8.804;2023-07-09T08:49:57;7.47;;;4.80;;
8909;SDS011;4490;49.072;8.804;2023-07-09T08:52:28;5.57;;;4.18;;
8909;SDS011;4490;49.072;8.804;2023-07-09T08:55:08;5.85;;;4.15;;
8909;SDS011;4490;49.072;8.804;2023-07-09T08:58:01;6.22;;;4.68;;
8909;SDS011;4490;49.072;8.804;2023-07-09T09:00:35;6.78;;;4.35;;
8909;SDS011;4490;49.072;8.804;2023-07-09T09:03:11;6.15;;;4.78;;
8909;SDS011;4490;49.072;8.804;2023-07-09T09:05:43;7.25;;;4.80;;
8909;SDS011;4490;49.072;8.804;2023-07-09T09:13:50;5.93;;;4.38;;
8909;SDS011;4490;49.072;8.804;2023-07-09T09:16:34;6.18;;;4.57;;
8909;SDS011;4490;49.072;8.804;2023-07-09T09:19:03;6.97;;;4.45;;
8909;SDS011;4490;49.072;8.804;2023-07-09T09:22:02;4.60;;;4.10;;
8909;SDS011;4490;49.072;8.804;2023-07-09T09:24:53;5.53;;;4.22;;
8909;SDS011;4490;49.072;8.804;2023-07-09T09:27:39;6.32;;;4.45;;
8909;SDS011;4490;49.072;8.804;2023-07-09T09:30:08;4.53;;;4.13;;
8909;SDS011;4490;49.072;8.804;2023-07-09T09:32:45;5.53;;;4.70;;
8909;SDS011;4490;49.072;8.804;2023-07-09T09:35:18;8.32;;;4.47;;
8909;SDS011;4490;49.072;8.804;2023-07-09T09:37:55;6.93;;;4.07;;
8909;SDS011;4490;49.072;8.804;2023-07-09T09:40:23;4.63;;;4.00;;
8909;SDS011;4490;49.072;8.804;2023-07-09T09:42:50;5.50;;;4.40;;
8909;SDS011;4490;49.072;8.804;2023-07-09T09:45:19;6.90;;;4.50;;
8909;SDS011;4490;49.072;8.804;2023-07-09T09:47:47;6.97;;;4.47;;
8909;SDS011;4490;49.072;8.804;2023-07-09T09:50:17;6.57;;;4.45;;
8909;SDS011;4490;49.072;8.804;2023-07-09T09:52:44;4.93;;;4.28;;
8909;SDS011;4490;49.072;8.804;2023-07-09T09:55:12;5.78;;;4.28;;
8909;SDS011;4490;49.072;8.804;2023-07-09T09:57:46;6.53;;;4.40;;
8909;SDS011;4490;49.072;8.804;2023-07-09T10:00:15;7.20;;;4.35;;
8909;SDS011;4490;49.072;8.804;2023-07-09T10:02:42;5.47;;;4.82;;
8909;SDS011;4490;49.072;8.804;2023-07-09T10:05:14;4.60;;;4.20;;
8909;SDS011;4490;49.072;8.804;2023-07-09T10:10:43;5.45;;;4.50;;
8909;SDS011;4490;49.072;8.804;2023-07-09T10:13:17;5.75;;;4.32;;
8909;SDS011;4490;49.072;8.804;2023-07-09T10:16:02;6.72;;;4.38;;
8909;SDS011;4490;49.072;8.804;2023-07-09T10:21:31;6.63;;;4.03;;
8909;SDS011;4490;49.072;8.804;2023-07-09T10:24:13;4.72;;;4.30;;
8909;SDS011;4490;49.072;8.804;2023-07-09T10:27:08;5.63;;;4.60;;
8909;SDS011;4490;49.072;8.804;2023-07-09T10:40:39;6.50;;;3.72;;
8909;SDS011;4490;49.072;8.804;2023-07-09T10:43:11;6.22;;;3.63;;
8909;SDS011;4490;49.072;8.804;2023-07-09T10:45:44;5.30;;;3.85;;
8909;SDS011;4490;49.072;8.804;2023-07-09T10:48:16;6.43;;;4.20;;
8909;SDS011;4490;49.072;8.804;2023-07-09T10:50:49;4.20;;;3.80;;
8909;SDS011;4490;49.072;8.804;2023-07-09T10:56:16;4.30;;;3.90;;
8909;SDS011;4490;49.072;8.804;2023-07-09T11:01:49;4.60;;;4.20;;
8909;SDS011;4490;49.072;8.804;2023-07-09T11:04:30;5.70;;;4.22;;
8909;SDS011;4490;49.072;8.804;2023-07-09T11:07:06;5.00;;;3.95;;
8909;SDS011;4490;49.072;8.804;2023-07-09T11:09:39;6.68;;;3.55;;
8909;SDS011;4490;49.072;8.804;2023-07-09T11:12:15;4.40;;;3.80;;
8909;SDS011;4490;49.072;8.804;2023-07-09T11:15:03;6.38;;;3.95;;
8909;SDS011;4490;49.072;8.804;2023-07-09T11:17:33;13.73;;;4.30;;
8909;SDS011;4490;49.072;8.804;2023-07-09T11:20:07;4.28;;;3.72;;
8909;SDS011;4490;49.072;8.804;2023-07-09T11:25:27;7.65;;;3.95;;
8909;SDS011;4490;49.072;8.804;2023-07-09T11:28:04;4.68;;;4.20;;
8909;SDS011;4490;49.072;8.804;2023-07-09T11:30:31;5.05;;;3.92;;
8909;SDS011;4490;49.072;8.804;2023-07-09T11:32:59;4.30;;;3.90;;
8909;SDS011;4490;49.072;8.804;2023-07-09T11:35:30;8.18;;;4.63;;
8909;SDS011;4490;49.072;8.804;2023-07-09T11:38:18;6.90;;;4.30;;
8909;SDS011;4490;49.072;8.804;2023-07-09T11:40:46;7.30;;;4.38;;
8909;SDS011;4490;49.072;8.804;2023-07-09T11:43:25;5.63;;;3.97;;
8909;SDS011;4490;49.072;8.804;2023-07-09T11:46:11;6.05;;;4.53;;
8909;SDS011;4490;49.072;8.804;2023-07-09T11:48:47;8.57;;;4.90;;
8909;SDS011;4490;49.072;8.804;2023-07-09T11:51:15;4.95;;;4.40;;
8909;SDS011;4490;49.072;8.804;2023-07-09T11:56:22;5.22;;;4.07;;
8909;SDS011;4490;49.072;8.804;2023-07-09T11:58:52;5.13;;;4.10;;
8909;SDS011;4490;49.072;8.804;2023-07-09T12:01:22;6.15;;;4.68;;
8909;SDS011;4490;49.072;8.804;2023-07-09T12:03:51;6.47;;;4.50;;
8909;SDS011;4490;49.072;8.804;2023-07-09T12:06:24;5.65;;;4.25;;
8909;SDS011;4490;49.072;8.804;2023-07-09T12:08:53;8.68;;;4.15;;
8909;SDS011;4490;49.072;8.804;2023-07-09T12:11:20;6.57;;;4.28;;
8909;SDS011;4490;49.072;8.804;2023-07-09T12:14:03;8.07;;;4.55;;
8909;SDS011;4490;49.072;8.804;2023-07-09T12:16:43;6.13;;;4.15;;
8909;SDS011;4490;49.072;8.804;2023-07-09T12:19:12;6.40;;;4.28;;
8909;SDS011;4490;49.072;8.804;2023-07-09T12:21:42;5.78;;;4.88;;
8909;SDS011;4490;49.072;8.804;2023-07-09T12:27:00;5.57;;;4.10;;
8909;SDS011;4490;49.072;8.804;2023-07-09T12:29:28;6.70;;;4.13;;
8909;SDS011;4490;49.072;8.804;2023-07-09T12:32:02;6.78;;;4.20;;
8909;SDS011;4490;49.072;8.804;2023-07-09T12:34:35;5.95;;;4.65;;
8909;SDS011;4490;49.072;8.804;2023-07-09T12:37:00;4.88;;;4.30;;
8909;SDS011;4490;49.072;8.804;2023-07-09T12:39:27;6.55;;;4.50;;
8909;SDS011;4490;49.072;8.804;2023-07-09T12:41:58;5.18;;;4.30;;
8909;SDS011;4490;49.072;8.804;2023-07-09T12:44:26;6.28;;;4.25;;
8909;SDS011;4490;49.072;8.804;2023-07-09T12:46:57;4.53;;;4.00;;
8909;SDS011;4490;49.072;8.804;2023-07-09T12:49:24;5.68;;;4.30;;
8909;SDS011;4490;49.072;8.804;2023-07-09T12:51:55;5.25;;;4.25;;
8909;SDS011;4490;49.072;8.804;2023-07-09T12:54:21;6.18;;;4.40;;
8909;SDS011;4490;49.072;8.804;2023-07-09T12:56:50;7.90;;;4.40;;
8909;SDS011;4490;49.072;8.804;2023-07-09T12:59:21;5.20;;;4.38;;
8909;SDS011;4490;49.072;8.804;2023-07-09T13:01:49;6.18;;;4.80;;
8909;SDS011;4490;49.072;8.804;2023-07-09T13:04:32;4.97;;;4.47;;
8909;SDS011;4490;49.072;8.804;2023-07-09T13:07:01;5.47;;;4.80;;
8909;SDS011;4490;49.072;8.804;2023-07-09T13:09:27;6.13;;;4.68;;
8909;SDS011;4490;49.072;8.804;2023-07-09T13:11:53;7.78;;;4.55;;
8909;SDS011;4490;49.072;8.804;2023-07-09T13:14:21;6.38;;;4.57;;
8909;SDS011;4490;49.072;8.804;2023-07-09T13:16:49;5.28;;;4.15;;
8909;SDS011;4490;49.072;8.804;2023-07-09T13:19:15;6.88;;;4.68;;
8909;SDS011;4490;49.072;8.804;2023-07-09T13:21:41;5.47;;;4.55;;
8909;SDS011;4490;49.072;8.804;2023-07-09T13:24:14;5.13;;;4.25;;
8909;SDS011;4490;49.072;8.804;2023-07-09T13:26:43;4.95;;;4.40;;
8909;SDS011;4490;49.072;8.804;2023-07-09T13:29:12;6.95;;;4.07;;
8909;SDS011;4490;49.072;8.804;2023-07-09T13:31:39;5.22;;;4.32;;
8909;SDS011;4490;49.072;8.804;2023-07-09T13:34:07;4.90;;;4.40;;
8909;SDS011;4490;49.072;8.804;2023-07-09T13:36:43;6.30;;;4.40;;
8909;SDS011;4490;49.072;8.804;2023-07-09T13:39:10;5.45;;;4.53;;
8909;SDS011;4490;49.072;8.804;2023-07-09T13:41:37;5.70;;;4.38;;
8909;SDS011;4490;49.072;8.804;2023-07-09T13:44:17;7.97;;;4.30;;
8909;SDS011;4490;49.072;8.804;2023-07-09T13:46:46;6.38;;;4.78;;
8909;SDS011;4490;49.072;8.804;2023-07-09T13:49:13;5.50;;;4.47;;
8909;SDS011;4490;49.072;8.804;2023-07-09T13:51:40;5.15;;;4.50;;
8909;SDS011;4490;49.072;8.804;2023-07-09T13:54:17;5.55;;;4.30;;
8909;SDS011;4490;49.072;8.804;2023-07-09T13:56:47;6.28;;;4.53;;
8909;SDS011;4490;49.072;8.804;2023-07-09T13:59:24;6.95;;;4.47;;
8909;SDS011;4490;49.072;8.804;2023-07-09T14:01:55;7.18;;;4.53;;
8909;SDS011;4490;49.072;8.804;2023-07-09T14:04:23;6.85;;;5.03;;
8909;SDS011;4490;49.072;8.804;2023-07-09T14:06:49;5.40;;;4.30;;
8909;SDS011;4490;49.072;8.804;2023-07-09T14:09:16;7.57;;;5.10;;
8909;SDS011;4490;49.072;8.804;2023-07-09T14:11:44;4.97;;;4.45;;
8909;SDS011;4490;49.072;8.804;2023-07-09T14:14:21;4.68;;;4.28;;
8909;SDS011;4490;49.072;8.804;2023-07-09T14:16:49;6.88;;;4.25;;
8909;SDS011;4490;49.072;8.804;2023-07-09T14:19:19;6.13;;;4.72;;
8909;SDS011;4490;49.072;8.804;2023-07-09T14:21:47;6.15;;;4.50;;
8909;SDS011;4490;49.072;8.804;2023-07-09T14:24:20;6.85;;;4.32;;
8909;SDS011;4490;49.072;8.804;2023-07-09T14:26:52;6.78;;;4.53;;
8909;SDS011;4490;49.072;8.804;2023-07-09T14:29:20;4.70;;;4.30;;
8909;SDS011;4490;49.072;8.804;2023-07-09T14:31:48;7.85;;;4.28;;
8909;SDS011;4490;49.072;8.804;2023-07-09T14:34:19;5.22;;;4.28;;
8909;SDS011;4490;49.072;8.804;2023-07-09T14:36:46;5.53;;;4.40;;
8909;SDS011;4490;49.072;8.804;2023-07-09T14:39:15;6.20;;;4.38;;
8909;SDS011;4490;49.072;8.804;2023-07-09T14:41:41;4.55;;;4.10;;
8909;SDS011;4490;49.072;8.804;2023-07-09T14:44:15;4.95;;;4.28;;
8909;SDS011;4490;49.072;8.804;2023-07-09T14:46:51;5.95;;;4.53;;
8909;SDS011;4490;49.072;8.804;2023-07-09T14:49:19;6.07;;;4.30;;
8909;SDS011;4490;49.072;8.804;2023-07-09T14:51:45;4.88;;;4.22;;
8909;SDS011;4490;49.072;8.804;2023-07-09T14:54:30;6.00;;;4.68;;
8909;SDS011;4490;49.072;8.804;2023-07-09T14:56:57;7.05;;;4.43;;
8909;SDS011;4490;49.072;8.804;2023-07-09T14:59:23;5.95;;;4.43;;
8909;SDS011;4490;49.072;8.804;2023-07-09T15:01:50;6.88;;;4.38;;
8909;SDS011;4490;49.072;8.804;2023-07-09T15:06:46;4.10;;;3.70;;
8909;SDS011;4490;49.072;8.804;2023-07-09T15:09:14;5.63;;;4.78;;
8909;SDS011;4490;49.072;8.804;2023-07-09T15:11:42;5.53;;;4.60;;
8909;SDS011;4490;49.072;8.804;2023-07-09T15:14:10;6.10;;;4.13;;
8909;SDS011;4490;49.072;8.804;2023-07-09T15:16:36;4.80;;;4.28;;
8909;SDS011;4490;49.072;8.804;2023-07-09T15:19:12;4.85;;;4.00;;
8909;SDS011;4490;49.072;8.804;2023-07-09T15:21:41;6.00;;;4.38;;
8909;SDS011;4490;49.072;8.804;2023-07-09T15:24:25;6.43;;;4.30;;
8909;SDS011;4490;49.072;8.804;2023-07-09T15:26:54;6.65;;;4.60;;
8909;SDS011;4490;49.072;8.804;2023-07-09T15:29:21;5.03;;;4.50;;
8909;SDS011;4490;49.072;8.804;2023-07-09T15:31:48;7.00;;;4.50;;
8909;SDS011;4490;49.072;8.804;2023-07-09T15:34:14;4.60;;;4.10;;
8909;SDS011;4490;49.072;8.804;2023-07-09T15:36:44;6.70;;;4.57;;
8909;SDS011;4490;49.072;8.804;2023-07-09T15:39:13;5.93;;;3.95;;
8909;SDS011;4490;49.072;8.804;2023-07-09T15:41:39;5.50;;;4.15;;
8909;SDS011;4490;49.072;8.804;2023-07-09T15:44:09;5.70;;;4.07;;
8909;SDS011;4490;49.072;8.804;2023-07-09T15:46:39;5.35;;;4.55;;
8909;SDS011;4490;49.072;8.804;2023-07-09T15:49:07;7.82;;;4.38;;
8909;SDS011;4490;49.072;8.804;2023-07-09T15:51:36;6.65;;;4.40;;
8909;SDS011;4490;49.072;8.804;2023-07-09T15:54:04;5.43;;;4.40;;
8909;SDS011;4490;49.072;8.804;2023-07-09T15:56:50;5.53;;;4.15;;
8909;SDS011;4490;49.072;8.804;2023-07-09T15:59:28;7.00;;;4.38;;
8909;SDS011;4490;49.072;8.804;2023-07-09T16:01:55;5.72;;;4.07;;
8909;SDS011;4490;49.072;8.804;2023-07-09T16:04:23;5.13;;;4.40;;
8909;SDS011;4490;49.072;8.804;2023-07-09T16:06:49;6.43;;;4.28;;
8909;SDS011;4490;49.072;8.804;2023-07-09T16:09:15;6.72;;;4.28;;
8909;SDS011;4490;49.072;8.804;2023-07-09T16:11:42;6.35;;;4.13;;
8909;SDS011;4490;49.072;8.804;2023-07-09T16:16:56;6.70;;;4.60;;